Historyczne dane pomiarowe

Dodano dane terminowe – wersja testowa.

Dane z okresu 1951-2019

Wersja bazy: 1.34 [2019-03-16, lista zmian], aktualizacja planowana na 2019-04-15

Dane meteo z obszaru Polski uzyskane na podstawie danych udostępnionych przez Instytut Meteorologii i Gospodarki Wodnej – Państwowy Instytut Badawczy.

 

Wybierz Datę:    

       

TemperaturaWilgotnośćWiatrCiśnienieOpadyŚniegCzas trwania zjawisk
 Stacja t tx tn tng RH VA  wxwx mslp ppp RRR   cm mm wxwxwxwxwxwxwx
2004-08-13 16.9 20.1 11.8- 89.5- 7.7 0.7---- 10.0------------
2004-08-14 13.3 19.9 6.4- 93.8- 6.3 0.3---- 5.1------------
2004-08-15 13.1 18.3 9.9- 85.5- 3.0 1.0---- 0.0------------
2004-08-16 11.3 22.1 2.5- 83.8- 0.3 0.3---- 0.0------------
2004-08-17 14.6 23.4 4.0- 72.3- 2.0 1.3---- 0.0------------
2004-08-18 17.3 24.4 9.0- 67.3- 0.3 1.3---- 0.0------------
2004-08-19 17.3 27.1 8.3- 83.8- 0.3 0.3---- 0.0------------
2004-08-20 17.8 27.8 9.2- 87.8- 1.7 0.3---- 0.0------------
2004-08-21 14.7 18.1 13.3- 84.5- 7.7 0.7---- 47.2------------
2004-08-22 13.3 13.8 12.8- 98.8- 8.0 1.7---- 9.5------------
2004-08-23 12.0 17.3 8.9- 88.3- 2.7 0.3---- 0.0------------
2004-08-24 11.9 21.1 3.6- 81.8- 1.7 0.7---- 0.3------------
2004-08-25 16.4 22.1 13.5- 78.0- 5.7 1.0---- 0.0------------
2004-08-26 14.8 20.7 9.9- 92.0- 7.7 0.7---- 33.2------------
2004-08-27 13.5 16.2 12.2- 97.5- 8.0 1.0---- 6.8------------
2004-08-28 14.7 21.3 10.8- 86.3- 4.7 0.7---- 0.0------------
2004-08-29 13.7 24.9 5.1- 86.5- 1.3 0.3---- 0.0------------
2004-08-30 14.1 23.0 7.5- 86.5- 2.3 0.3---- 0.0------------
2004-08-31 15.1 24.1 8.0- 85.5- 4.0 1.3---- 37.2------------
2004-09-01 11.7 13.8 10.4- 98.3- 7.7 0.3---- 0.3------------
2004-09-02 11.1 19.3 6.9- 92.5- 4.3 0.3---- 0.0------------
2004-09-03 10.7 21.3 4.5- 90.5- 3.7 0.3---- 0.0------------
2004-09-04 11.2 19.7 3.6- 89.0- 7.7 0.3---- 0.0------------
2004-09-05 13.2 18.2 10.1- 91.3- 5.3 0.7---- 0.0------------
2004-09-06 12.3 20.3 7.9- 88.8- 3.0 0.3---- 0.0------------
2004-09-07 11.1 21.7 5.5- 90.8- 4.0 0.3---- 1.6------------
2004-09-08 10.4 17.0 5.3- 93.8- 7.7 0.7---- 2.7------------
2004-09-09 7.1 11.0 5.5- 77.8- 6.7 2.0---- 0.0------------
2004-09-10 4.9 13.2 -0.9- 85.0- 1.3 0.3---- 0.0------------
2004-09-11 9.0 16.3 -2.4- 63.0- 1.3 2.7---- 0.2------------
168.6 ms

 

Źródłem pochodzenia danych jest Instytut Meteorologii i Gospodarki Wodnej – Państwowy Instytut Badawczy. Dane Instytutu Meteorologii i Gospodarki Wodnej – Państwowego Instytutu Badawczego zostały przetworzone.

Dane źródłowe można odnaleźć na stronie https://dane.imgw.pl